Time;durP1;ratioP1;P1;durP2;ratioP2;P2;SDS_P1;SDS_P2;PMS_P1;PMS_P2;Temp;Humidity;BMP_temperature;BMP_pressure;BME280_temperature;BME280_humidity;BME280_pressure;Samples;Min_cycle;Max_cycle;Signal;HPM_P1;HPM_P2
2023/09/04 00:01:02;;;;;;;4.25;3.60;;;;;;;-140.66;100.00;55571.53;5101665;28;20034;-72
2023/09/04 00:03:49;;;;;;;6.82;3.67;;;;;;;-140.66;100.00;55571.53;5114727;28;20024;-72
2023/09/04 00:06:34;;;;;;;6.05;3.78;;;;;;;-140.66;100.00;55571.53;5114997;28;20023;-71
2023/09/04 00:09:20;;;;;;;6.13;4.07;;;;;;;-140.66;100.00;55571.53;5114685;28;20029;-71
2023/09/04 00:12:06;;;;;;;5.75;4.53;;;;;;;-140.66;100.00;55571.53;5115135;28;20081;-72
2023/09/04 00:14:52;;;;;;;5.43;3.90;;;;;;;-140.66;100.00;55571.53;5114801;28;20321;-71
2023/09/04 00:17:38;;;;;;;5.07;4.15;;;;;;;-140.66;100.00;55571.53;5100043;28;20027;-71
2023/09/04 00:20:24;;;;;;;6.55;3.92;;;;;;;-140.66;100.00;55571.53;5099912;28;20095;-71
2023/09/04 00:23:10;;;;;;;6.13;4.03;;;;;;;-140.66;100.00;55571.53;5113953;28;20476;-71
2023/09/04 00:25:56;;;;;;;4.97;4.22;;;;;;;-140.66;100.00;55571.53;5114663;28;20495;-72
2023/09/04 00:28:42;;;;;;;5.35;3.90;;;;;;;-140.66;100.00;55571.53;5114222;28;20035;-70
2023/09/04 00:31:27;;;;;;;5.45;4.20;;;;;;;-140.66;100.00;55571.53;5100118;28;20016;-72
2023/09/04 00:34:13;;;;;;;4.22;3.80;;;;;;;-140.66;100.00;55571.53;5099401;28;20169;-73
2023/09/04 00:36:59;;;;;;;7.57;4.00;;;;;;;-140.66;100.00;55571.53;5115241;28;20092;-72
2023/09/04 00:39:45;;;;;;;6.10;3.70;;;;;;;-140.66;100.00;55571.53;5113575;28;20092;-71
2023/09/04 00:42:33;;;;;;;6.60;4.25;;;;;;;-140.66;100.00;55571.53;5113257;28;20092;-71
2023/09/04 00:45:18;;;;;;;6.32;4.07;;;;;;;-140.66;100.00;55571.53;5098836;28;20048;-71
2023/09/04 00:48:05;;;;;;;13.45;3.80;;;;;;;-140.66;100.00;55571.53;5113443;28;20111;-72
2023/09/04 00:50:52;;;;;;;10.27;4.20;;;;;;;-140.66;100.00;55571.53;5113649;28;20070;-71
2023/09/04 00:53:39;;;;;;;4.40;3.85;;;;;;;-140.66;100.00;55571.53;5113124;28;20031;-71
2023/09/04 00:56:24;;;;;;;5.05;3.90;;;;;;;-140.66;100.00;55571.53;5100209;28;20385;-70
2023/09/04 00:59:10;;;;;;;6.25;4.05;;;;;;;-140.66;100.00;55571.53;5114431;28;20115;-72
2023/09/04 01:01:59;;;;;;;5.75;3.90;;;;;;;-140.66;100.00;55571.53;5113607;28;20138;-71
2023/09/04 01:04:45;;;;;;;5.25;4.05;;;;;;;-140.66;100.00;55571.53;5113983;28;20112;-70
2023/09/04 01:07:31;;;;;;;5.95;4.13;;;;;;;-140.66;100.00;55571.53;5112852;28;20089;-71
2023/09/04 01:10:17;;;;;;;4.90;3.88;;;;;;;-140.66;100.00;55571.53;5113371;28;20449;-72
2023/09/04 01:13:12;;;;;;;6.40;4.00;;;;;;;-140.66;100.00;55571.53;5113543;28;20034;-72
2023/09/04 01:16:00;;;;;;;6.15;4.25;;;;;;;-140.66;100.00;55571.53;5098697;28;20042;-71
2023/09/04 01:18:47;;;;;;;7.60;4.63;;;;;;;-140.66;100.00;55571.53;5098723;28;20024;-71
2023/09/04 01:21:37;;;;;;;5.28;3.78;;;;;;;-140.66;100.00;55571.53;5113591;28;20034;-71
2023/09/04 01:24:22;;;;;;;6.18;4.28;;;;;;;-140.66;100.00;55571.53;5098933;28;20144;-72
2023/09/04 01:27:25;;;;;;;7.30;3.88;;;;;;;-140.66;100.00;55571.53;5112171;28;20034;-72
2023/09/04 01:30:24;;;;;;;5.57;3.80;;;;;;;-140.66;100.00;55571.53;5113354;28;20031;-71
2023/09/04 01:33:13;;;;;;;6.65;4.07;;;;;;;-140.66;100.00;55571.53;5113524;28;20059;-71
2023/09/04 01:36:04;;;;;;;8.32;4.10;;;;;;;-140.66;100.00;55571.53;5113562;28;20028;-72
2023/09/04 01:38:51;;;;;;;4.63;4.07;;;;;;;-140.66;100.00;55571.53;5113057;28;20024;-72
2023/09/04 01:41:38;;;;;;;5.93;4.10;;;;;;;-140.66;100.00;55571.53;5097474;28;20143;-72
2023/09/04 01:44:25;;;;;;;5.90;3.88;;;;;;;-140.66;100.00;55571.53;5098040;28;20388;-71
2023/09/04 01:47:11;;;;;;;5.05;3.92;;;;;;;-140.66;100.00;55571.53;5112711;28;20047;-72
2023/09/04 01:49:57;;;;;;;6.95;4.38;;;;;;;-140.66;100.00;55571.53;5112429;28;20111;-71
2023/09/04 01:52:42;;;;;;;5.75;4.20;;;;;;;-140.66;100.00;55571.53;5098366;28;20027;-72
2023/09/04 01:55:28;;;;;;;8.40;4.75;;;;;;;-140.66;100.00;55571.53;5113611;28;20357;-71
2023/09/04 01:58:14;;;;;;;5.93;4.50;;;;;;;-140.66;100.00;55571.53;5112113;28;20042;-72
2023/09/04 02:01:00;;;;;;;8.80;4.32;;;;;;;-140.66;100.00;55571.53;5113111;28;20059;-73
2023/09/04 02:03:56;;;;;;;7.82;4.75;;;;;;;-140.66;100.00;55571.53;5113670;28;20428;-71
2023/09/04 02:06:42;;;;;;;7.90;5.03;;;;;;;-140.66;100.00;55571.53;5112580;28;20035;-71
2023/09/04 02:09:27;;;;;;;5.93;4.70;;;;;;;-140.66;100.00;55571.53;5113016;28;20445;-72
2023/09/04 02:12:13;;;;;;;7.95;4.90;;;;;;;-140.66;100.00;55571.53;5113556;28;20071;-71
2023/09/04 02:14:59;;;;;;;6.63;5.00;;;;;;;-140.66;100.00;55571.53;5112623;28;20365;-71
2023/09/04 02:17:45;;;;;;;7.97;5.00;;;;;;;-140.66;100.00;55571.53;5117106;28;20020;-72
2023/09/04 02:20:31;;;;;;;7.38;5.03;;;;;;;-140.66;100.00;55571.53;5102527;28;20036;-71
2023/09/04 02:23:16;;;;;;;5.30;4.53;;;;;;;-140.66;100.00;55571.53;5116399;28;20024;-71
2023/09/04 02:26:02;;;;;;;7.13;4.68;;;;;;;-140.66;100.00;55571.53;5117208;28;20437;-71
2023/09/04 02:28:48;;;;;;;5.72;5.13;;;;;;;-140.66;100.00;55571.53;5116879;28;20038;-72
2023/09/04 02:31:34;;;;;;;8.65;5.05;;;;;;;-140.66;100.00;55571.53;5117182;28;20019;-71
2023/09/04 02:34:19;;;;;;;7.00;5.35;;;;;;;-140.66;100.00;55571.53;5115682;28;20059;-72
2023/09/04 02:37:05;;;;;;;9.93;5.35;;;;;;;-140.66;100.00;55571.53;5117149;28;20027;-72
2023/09/04 02:39:51;;;;;;;8.32;5.50;;;;;;;-140.66;100.00;55571.53;5117832;28;20050;-73
2023/09/04 02:42:37;;;;;;;7.75;5.53;;;;;;;-140.66;100.00;55571.53;5115980;28;20028;-71
2023/09/04 02:45:22;;;;;;;11.52;5.53;;;;;;;-140.66;100.00;55571.53;5117422;28;20043;-71
2023/09/04 02:48:08;;;;;;;7.30;5.55;;;;;;;-140.66;100.00;55571.53;5115588;28;20047;-71
2023/09/04 02:50:58;;;;;;;10.68;5.50;;;;;;;-140.66;100.00;55571.53;5116110;28;20441;-71
2023/09/04 02:53:44;;;;;;;8.07;5.55;;;;;;;-140.66;100.00;55571.53;5116933;28;20027;-72
2023/09/04 02:56:30;;;;;;;6.40;5.75;;;;;;;-140.66;100.00;55571.53;5117566;28;20020;-72
2023/09/04 02:59:16;;;;;;;8.00;5.60;;;;;;;-140.66;100.00;55571.53;5115574;28;20023;-73
2023/09/04 03:02:02;;;;;;;7.30;6.10;;;;;;;-140.66;100.00;55571.53;5116245;28;20047;-72
2023/09/04 03:04:55;;;;;;;10.93;5.68;;;;;;;-140.66;100.00;55571.53;5115506;28;20032;-71
2023/09/04 03:07:40;;;;;;;9.50;5.57;;;;;;;-140.66;100.00;55571.53;5115889;28;20038;-71
2023/09/04 03:10:26;;;;;;;7.80;5.80;;;;;;;-140.66;100.00;55571.53;5114503;28;20085;-71
2023/09/04 03:13:12;;;;;;;8.57;5.40;;;;;;;-140.66;100.00;55571.53;5116662;28;20415;-72
2023/09/04 03:15:58;;;;;;;8.80;5.63;;;;;;;-140.66;100.00;55571.53;5114732;28;20465;-71
2023/09/04 03:18:43;;;;;;;5.82;4.95;;;;;;;-140.66;100.00;55571.53;5117133;28;20031;-71
2023/09/04 03:21:31;;;;;;;6.75;5.55;;;;;;;-140.66;100.00;55571.53;5116580;28;20038;-71
2023/09/04 03:24:20;;;;;;;6.78;5.40;;;;;;;-140.66;100.00;55571.53;5116677;28;20102;-71
2023/09/04 03:27:05;;;;;;;11.98;6.10;;;;;;;-140.66;100.00;55571.53;5115302;28;20034;-72
2023/09/04 03:29:51;;;;;;;10.40;6.65;;;;;;;-140.66;100.00;55571.53;5101585;28;20050;-71
2023/09/04 03:32:37;;;;;;;10.68;6.45;;;;;;;-140.66;100.00;55571.53;5115760;28;20042;-71
2023/09/04 03:35:23;;;;;;;8.45;6.80;;;;;;;-140.66;100.00;55571.53;5101233;28;20038;-73
2023/09/04 03:38:08;;;;;;;7.63;6.15;;;;;;;-140.66;100.00;55571.53;5116180;28;20168;-71
2023/09/04 03:40:54;;;;;;;7.30;5.38;;;;;;;-140.66;100.00;55571.53;5100948;28;20038;-71
2023/09/04 03:43:40;;;;;;;6.20;5.22;;;;;;;-140.66;100.00;55571.53;5115331;28;20079;-72
2023/09/04 03:46:27;;;;;;;7.60;5.32;;;;;;;-140.66;100.00;55571.53;5115841;28;20023;-71
2023/09/04 03:49:13;;;;;;;8.15;5.80;;;;;;;-140.66;100.00;55571.53;5115228;28;20054;-72
2023/09/04 03:52:00;;;;;;;7.70;5.43;;;;;;;-140.66;100.00;55571.53;5100189;28;20070;-72
2023/09/04 03:54:45;;;;;;;6.70;4.95;;;;;;;-140.66;100.00;55571.53;5100038;28;20059;-72
2023/09/04 03:57:31;;;;;;;7.40;5.05;;;;;;;-140.66;100.00;55571.53;5101011;28;20350;-71
2023/09/04 04:00:20;;;;;;;6.25;5.25;;;;;;;-140.66;100.00;55571.53;5114980;28;20468;-72
2023/09/04 04:03:06;;;;;;;8.00;5.15;;;;;;;-140.66;100.00;55571.53;5100659;28;20085;-73
2023/09/04 04:05:52;;;;;;;7.13;5.50;;;;;;;-140.66;100.00;55571.53;5115045;28;20061;-72
2023/09/04 04:08:38;;;;;;;7.55;4.93;;;;;;;-140.66;100.00;55571.53;5116023;28;20464;-72
2023/09/04 04:11:23;;;;;;;8.90;4.90;;;;;;;-140.66;100.00;55571.53;5115168;28;20034;-72
2023/09/04 04:14:09;;;;;;;6.75;5.10;;;;;;;-140.66;100.00;55571.53;5113829;28;20024;-72
2023/09/04 04:16:55;;;;;;;6.30;5.20;;;;;;;-140.66;100.00;55571.53;5113662;28;20027;-72
2023/09/04 04:19:41;;;;;;;9.10;5.53;;;;;;;-140.66;100.00;55571.53;5113537;28;20373;-72
2023/09/04 04:22:26;;;;;;;7.65;4.93;;;;;;;-140.66;100.00;55571.53;5098756;28;20047;-72
2023/09/04 04:25:12;;;;;;;10.07;5.03;;;;;;;-140.66;100.00;55571.53;5114544;28;20027;-72
2023/09/04 04:27:58;;;;;;;5.07;4.32;;;;;;;-140.66;100.00;55571.53;5098930;28;20059;-72
2023/09/04 04:30:43;;;;;;;6.88;4.20;;;;;;;-140.66;100.00;55571.53;5115136;28;20051;-73
2023/09/04 04:33:29;;;;;;;5.63;3.67;;;;;;;-140.66;100.00;55571.53;5116138;28;20020;-72
2023/09/04 04:36:15;;;;;;;5.80;3.80;;;;;;;-140.66;100.00;55571.53;5115032;28;20024;-72
2023/09/04 04:39:01;;;;;;;6.68;3.80;;;;;;;-140.66;100.00;55571.53;5112421;28;20042;-73
2023/09/04 04:41:48;;;;;;;4.53;3.85;;;;;;;-140.66;100.00;55571.53;5099445;28;20024;-70
2023/09/04 04:44:34;;;;;;;5.80;4.32;;;;;;;-140.66;100.00;55571.53;5114194;28;20051;-72
2023/09/04 04:47:19;;;;;;;4.75;3.17;;;;;;;-140.66;100.00;55571.53;5114243;28;20091;-72
2023/09/04 04:50:06;;;;;;;3.85;3.40;;;;;;;-140.66;100.00;55571.53;5114991;28;20084;-72
2023/09/04 04:52:51;;;;;;;4.00;3.33;;;;;;;-140.66;100.00;55571.53;5113998;28;20063;-72
2023/09/04 04:55:37;;;;;;;4.93;3.63;;;;;;;-140.66;100.00;55571.53;5113121;28;20041;-72
2023/09/04 04:58:24;;;;;;;6.75;3.47;;;;;;;-140.66;100.00;55571.53;5100293;28;20124;-72
2023/09/04 05:01:10;;;;;;;3.92;3.10;;;;;;;-140.66;100.00;55571.53;5113060;28;20074;-71
2023/09/04 05:03:56;;;;;;;5.65;3.08;;;;;;;-140.66;100.00;55571.53;5114342;28;20373;-71
2023/09/04 05:06:42;;;;;;;4.95;2.80;;;;;;;-140.66;100.00;55571.53;5099523;28;20038;-71
2023/09/04 05:09:27;;;;;;;3.45;3.03;;;;;;;-140.66;100.00;55571.53;5113899;28;20357;-72
2023/09/04 05:12:13;;;;;;;4.22;3.00;;;;;;;-140.66;100.00;55571.53;5114676;28;20015;-71
2023/09/04 05:14:59;;;;;;;4.65;2.90;;;;;;;-140.66;100.00;55571.53;5114328;28;20035;-70
2023/09/04 05:17:45;;;;;;;5.53;2.53;;;;;;;-140.66;100.00;55571.53;5114221;28;20031;-72
2023/09/04 05:20:30;;;;;;;4.50;3.28;;;;;;;-140.66;100.00;55571.53;5113763;28;20034;-72
2023/09/04 05:23:16;;;;;;;4.65;3.22;;;;;;;-140.66;100.00;55571.53;5112894;28;20039;-72
2023/09/04 05:26:02;;;;;;;4.90;3.20;;;;;;;-140.66;100.00;55571.53;5112705;28;20357;-72
2023/09/04 05:28:48;;;;;;;4.43;3.03;;;;;;;-140.66;100.00;55571.53;5099377;28;20043;-73
2023/09/04 05:31:34;;;;;;;4.63;3.30;;;;;;;-140.66;100.00;55571.53;5112376;28;20440;-73
2023/09/04 05:34:19;;;;;;;3.28;2.72;;;;;;;-140.66;100.00;55571.53;5112842;28;20417;-72
2023/09/04 05:37:07;;;;;;;5.63;3.33;;;;;;;-140.66;100.00;55571.53;5114881;28;20036;-72
2023/09/04 05:39:53;;;;;;;4.25;3.25;;;;;;;-140.66;100.00;55571.53;5112996;28;20531;-72
2023/09/04 05:42:39;;;;;;;4.45;2.85;;;;;;;-140.66;100.00;55571.53;5114136;28;20044;-72
2023/09/04 05:45:25;;;;;;;3.65;2.83;;;;;;;-140.66;100.00;55571.53;5099339;28;20044;-71
2023/09/04 05:48:11;;;;;;;4.38;2.88;;;;;;;-140.66;100.00;55571.53;5113914;28;20027;-72
2023/09/04 05:51:01;;;;;;;5.50;3.20;;;;;;;-140.66;100.00;55571.53;5094258;28;20039;-72
2023/09/04 05:53:47;;;;;;;5.90;3.80;;;;;;;-140.66;100.00;55571.53;5117935;28;20404;-72
2023/09/04 05:56:33;;;;;;;7.45;3.30;;;;;;;-140.66;100.00;55571.53;5119211;28;20055;-72
2023/09/04 05:59:19;;;;;;;7.80;3.50;;;;;;;-140.66;100.00;55571.53;5118614;28;20088;-72
2023/09/04 06:02:04;;;;;;;6.07;3.80;;;;;;;-140.66;100.00;55571.53;5118426;28;20101;-72
2023/09/04 06:04:50;;;;;;;7.05;3.63;;;;;;;-140.66;100.00;55571.53;5117947;28;20032;-72
2023/09/04 06:07:36;;;;;;;5.57;3.75;;;;;;;-140.66;100.00;55571.53;5118766;28;20023;-71
2023/09/04 06:10:22;;;;;;;7.03;3.67;;;;;;;-140.66;100.00;55571.53;5117950;28;20112;-72
2023/09/04 06:13:08;;;;;;;9.90;4.95;;;;;;;-140.66;100.00;55571.53;5117879;28;20129;-72
2023/09/04 06:15:53;;;;;;;6.93;4.32;;;;;;;-140.66;100.00;55571.53;5118249;28;20023;-72
2023/09/04 06:18:39;;;;;;;6.45;3.78;;;;;;;-140.66;100.00;55571.53;5103489;28;20023;-74
2023/09/04 06:21:25;;;;;;;9.70;6.43;;;;;;;-140.66;100.00;55571.53;5116073;28;20023;-72
2023/09/04 06:24:11;;;;;;;5.18;3.63;;;;;;;-140.66;100.00;55571.53;5117942;28;20031;-72
2023/09/04 06:26:57;;;;;;;4.57;3.70;;;;;;;-140.66;100.00;55571.53;5117659;28;20492;-72
2023/09/04 06:29:42;;;;;;;8.65;4.50;;;;;;;-140.66;100.00;55571.53;5115915;28;20028;-72
2023/09/04 06:32:28;;;;;;;9.27;4.20;;;;;;;-140.66;100.00;55571.53;5117677;28;20019;-73
2023/09/04 06:35:14;;;;;;;8.90;4.05;;;;;;;-140.66;100.00;55571.53;5116261;28;20376;-70
2023/09/04 06:38:00;;;;;;;7.22;4.05;;;;;;;-140.66;100.00;55571.53;5101900;28;20023;-72
2023/09/04 06:40:46;;;;;;;6.70;4.10;;;;;;;-140.66;100.00;55571.53;5116480;28;20122;-71
2023/09/04 06:43:32;;;;;;;19.33;4.72;;;;;;;-140.66;100.00;55571.53;5117218;28;20597;-72
2023/09/04 06:46:18;;;;;;;9.85;4.72;;;;;;;-140.66;100.00;55571.53;5117780;28;20494;-72
2023/09/04 06:49:04;;;;;;;5.78;4.00;;;;;;;-140.66;100.00;55571.53;5117791;28;20039;-73
2023/09/04 06:51:49;;;;;;;8.15;4.20;;;;;;;-140.66;100.00;55571.53;5116937;28;20338;-72
2023/09/04 06:54:36;;;;;;;7.18;4.32;;;;;;;-140.66;100.00;55571.53;5117166;28;20028;-72
2023/09/04 06:57:21;;;;;;;7.05;4.25;;;;;;;-140.66;100.00;55571.53;5102715;28;20024;-73
2023/09/04 07:00:11;;;;;;;7.38;5.07;;;;;;;-140.66;100.00;55571.53;5100920;28;20024;-74
2023/09/04 07:02:57;;;;;;;7.35;4.22;;;;;;;-140.66;100.00;55571.53;5102201;28;20028;-72
2023/09/04 07:05:43;;;;;;;8.18;5.03;;;;;;;-140.66;100.00;55571.53;5116682;28;20031;-73
2023/09/04 07:08:30;;;;;;;7.97;4.72;;;;;;;-140.66;100.00;55571.53;5116297;28;20044;-73
2023/09/04 07:11:16;;;;;;;11.60;4.70;;;;;;;-140.66;100.00;55571.53;5102200;28;20093;-73
2023/09/04 07:14:02;;;;;;;5.80;4.63;;;;;;;-140.66;100.00;55571.53;5115813;28;20045;-74
2023/09/04 07:16:48;;;;;;;7.10;4.32;;;;;;;-140.66;100.00;55571.53;5115952;28;20114;-72
2023/09/04 07:19:33;;;;;;;6.07;4.03;;;;;;;-140.66;100.00;55571.53;5116889;28;20081;-73
2023/09/04 07:22:19;;;;;;;6.88;4.40;;;;;;;-140.66;100.00;55571.53;5115176;28;20031;-72
2023/09/04 07:25:06;;;;;;;11.20;4.78;;;;;;;-140.66;100.00;55571.53;5116157;28;20031;-72
2023/09/04 07:27:51;;;;;;;6.13;4.03;;;;;;;-140.66;100.00;55571.53;5100607;28;20440;-73
2023/09/04 07:30:37;;;;;;;7.03;4.15;;;;;;;-140.66;100.00;55571.53;5101153;28;20418;-73
2023/09/04 07:33:23;;;;;;;5.93;4.22;;;;;;;-140.66;100.00;55571.53;5115177;28;20023;-73
2023/09/04 07:36:09;;;;;;;6.55;4.47;;;;;;;-140.66;100.00;55571.53;5101998;28;20031;-73
2023/09/04 07:38:54;;;;;;;10.25;4.55;;;;;;;-140.66;100.00;55571.53;5115462;28;20339;-73
2023/09/04 07:41:40;;;;;;;7.63;4.10;;;;;;;-140.66;100.00;55571.53;5115226;28;20055;-74
2023/09/04 07:44:26;;;;;;;6.82;4.30;;;;;;;-140.66;100.00;55571.53;5115808;28;20048;-73
2023/09/04 07:47:12;;;;;;;8.48;5.20;;;;;;;-140.66;100.00;55571.53;5114945;28;20020;-74
2023/09/04 07:49:57;;;;;;;6.90;4.85;;;;;;;-140.66;100.00;55571.53;5100564;28;20042;-73
2023/09/04 07:52:43;;;;;;;7.32;4.00;;;;;;;-140.66;100.00;55571.53;5115257;28;20020;-72
2023/09/04 07:55:29;;;;;;;8.18;4.22;;;;;;;-140.66;100.00;55571.53;5115279;28;20023;-73
2023/09/04 07:58:15;;;;;;;6.53;4.00;;;;;;;-140.66;100.00;55571.53;5114763;28;20063;-73
2023/09/04 08:01:01;;;;;;;12.60;4.05;;;;;;;-140.66;100.00;55571.53;5114127;28;20027;-73
2023/09/04 08:03:47;;;;;;;9.50;4.78;;;;;;;-140.66;100.00;55571.53;5113923;28;20027;-73
2023/09/04 08:06:33;;;;;;;4.97;4.10;;;;;;;-140.66;100.00;55571.53;5100543;28;20034;-74
2023/09/04 08:09:19;;;;;;;12.07;4.45;;;;;;;-140.66;100.00;55571.53;5114735;28;20472;-73
2023/09/04 08:12:05;;;;;;;5.28;4.10;;;;;;;-140.66;100.00;55571.53;5115849;28;20039;-73
2023/09/04 08:14:51;;;;;;;9.25;4.13;;;;;;;-140.66;100.00;55571.53;5113477;28;20027;-74
2023/09/04 08:17:37;;;;;;;4.10;3.70;;;;;;;-140.66;100.00;55571.53;5100072;28;20035;-74
2023/09/04 08:20:23;;;;;;;6.18;4.13;;;;;;;-140.66;100.00;55571.53;5113918;28;20035;-74
2023/09/04 08:23:12;;;;;;;5.97;3.40;;;;;;;-140.66;100.00;55571.53;5114907;28;20031;-73
2023/09/04 08:26:02;;;;;;;9.45;3.70;;;;;;;-140.66;100.00;55571.53;5115453;28;20437;-73
2023/09/04 08:28:48;;;;;;;6.70;4.00;;;;;;;-140.66;100.00;55571.53;5098306;28;20296;-72
2023/09/04 08:31:34;;;;;;;5.85;3.90;;;;;;;-140.66;100.00;55571.53;5114730;28;20077;-74
2023/09/04 08:34:19;;;;;;;5.97;3.53;;;;;;;-140.66;100.00;55571.53;5114171;28;20031;-73
2023/09/04 08:37:05;;;;;;;7.25;3.30;;;;;;;-140.66;100.00;55571.53;5100393;28;20058;-73
2023/09/04 08:39:51;;;;;;;4.05;3.45;;;;;;;-140.66;100.00;55571.53;5100606;28;20019;-73
2023/09/04 08:42:38;;;;;;;4.68;3.38;;;;;;;-140.66;100.00;55571.53;5113391;28;20047;-73
2023/09/04 08:45:26;;;;;;;4.78;3.83;;;;;;;-140.66;100.00;55571.53;5114477;28;20108;-72
2023/09/04 08:48:13;;;;;;;4.57;3.47;;;;;;;-140.66;100.00;55571.53;5116068;28;20031;-72
2023/09/04 08:50:59;;;;;;;5.47;3.63;;;;;;;-140.66;100.00;55571.53;5114347;28;20045;-73
2023/09/04 08:53:45;;;;;;;13.57;3.90;;;;;;;-140.66;100.00;55571.53;5114186;28;20354;-72
2023/09/04 08:56:31;;;;;;;4.03;3.60;;;;;;;-140.66;100.00;55571.53;5113458;28;20045;-73
2023/09/04 08:59:17;;;;;;;5.55;4.03;;;;;;;-140.66;100.00;55571.53;5113189;28;20119;-72
2023/09/04 09:02:04;;;;;;;6.95;3.85;;;;;;;-140.66;100.00;55571.53;5113335;28;20330;-73
2023/09/04 09:04:52;;;;;;;4.85;3.58;;;;;;;-140.66;100.00;55571.53;5098631;28;20038;-72
2023/09/04 09:07:40;;;;;;;8.00;3.90;;;;;;;-140.66;100.00;55571.53;5098828;28;20123;-72
2023/09/04 09:10:26;;;;;;;6.85;3.65;;;;;;;-140.66;100.00;55571.53;5098428;28;20445;-72
2023/09/04 09:13:15;;;;;;;6.72;3.50;;;;;;;-140.66;100.00;55571.53;5099848;28;20418;-73
2023/09/04 09:16:01;;;;;;;10.38;4.40;;;;;;;-140.66;100.00;55571.53;5099101;28;20042;-72
2023/09/04 09:18:48;;;;;;;8.95;4.35;;;;;;;-140.66;100.00;55571.53;5113794;28;20090;-72
2023/09/04 09:21:34;;;;;;;5.50;3.78;;;;;;;-140.66;100.00;55571.53;5113880;28;20024;-72
2023/09/04 09:24:19;;;;;;;6.05;3.58;;;;;;;-140.66;100.00;55571.53;5114438;28;20019;-72
2023/09/04 09:27:05;;;;;;;5.45;3.95;;;;;;;-140.66;100.00;55571.53;5098765;28;20023;-72
2023/09/04 09:29:51;;;;;;;9.05;3.85;;;;;;;-140.66;100.00;55571.53;5099484;28;20032;-72
2023/09/04 09:32:37;;;;;;;7.53;3.92;;;;;;;-140.66;100.00;55571.53;5097725;28;20023;-74
2023/09/04 09:35:23;;;;;;;3.65;3.25;;;;;;;-140.66;100.00;55571.53;5112724;28;20035;-73
2023/09/04 09:38:09;;;;;;;7.75;3.50;;;;;;;-140.66;100.00;55571.53;5113744;28;20118;-72
2023/09/04 09:40:55;;;;;;;3.92;3.22;;;;;;;-140.66;100.00;55571.53;5112763;28;20460;-73
2023/09/04 09:43:41;;;;;;;8.55;3.85;;;;;;;-140.66;100.00;55571.53;5112960;28;20362;-74
2023/09/04 09:46:28;;;;;;;6.15;3.65;;;;;;;-140.66;100.00;55571.53;5111919;28;20020;-72
2023/09/04 09:49:14;;;;;;;8.77;4.10;;;;;;;-140.66;100.00;55571.53;5113783;28;20042;-73
2023/09/04 09:52:00;;;;;;;4.90;3.70;;;;;;;-140.66;100.00;55571.53;5099199;28;20132;-73
2023/09/04 09:54:47;;;;;;;3.60;3.30;;;;;;;-140.66;100.00;55571.53;5112898;28;20031;-73
2023/09/04 09:57:35;;;;;;;5.97;3.67;;;;;;;-140.66;100.00;55571.53;5113686;28;20023;-73
2023/09/04 10:00:20;;;;;;;7.35;3.58;;;;;;;-140.66;100.00;55571.53;5113139;28;20431;-73
2023/09/04 10:03:07;;;;;;;6.93;4.20;;;;;;;-140.66;100.00;55571.53;5090158;28;20070;-74
2023/09/04 10:05:53;;;;;;;5.65;3.45;;;;;;;-140.66;100.00;55571.53;5113714;28;20353;-73
2023/09/04 10:08:41;;;;;;;8.00;3.72;;;;;;;-140.66;100.00;55571.53;5114025;28;20380;-74
2023/09/04 10:11:32;;;;;;;4.45;3.45;;;;;;;-140.66;100.00;55571.53;5113122;28;20052;-74
2023/09/04 10:14:28;;;;;;;4.97;3.33;;;;;;;-140.66;100.00;55571.53;5112965;28;20019;-74
2023/09/04 10:17:35;;;;;;;5.82;3.40;;;;;;;-140.66;100.00;55571.53;5113498;28;20020;-73
2023/09/04 10:20:22;;;;;;;3.67;3.10;;;;;;;-140.66;100.00;55571.53;5113150;28;20038;-72
2023/09/04 10:23:14;;;;;;;5.80;3.00;;;;;;;-140.66;100.00;55571.53;5113478;28;20028;-73
2023/09/04 10:26:08;;;;;;;5.03;3.13;;;;;;;-140.66;100.00;55571.53;5114311;28;20430;-72
2023/09/04 10:29:07;;;;;;;4.15;3.22;;;;;;;-140.66;100.00;55571.53;5111698;28;20055;-73
2023/09/04 10:31:54;;;;;;;6.05;3.33;;;;;;;-140.66;100.00;55571.53;5113378;28;20031;-73
2023/09/04 10:34:41;;;;;;;6.00;3.60;;;;;;;-140.66;100.00;55571.53;5112733;28;20473;-73
2023/09/04 10:37:29;;;;;;;10.02;3.97;;;;;;;-140.66;100.00;55571.53;5087913;28;20032;-74
2023/09/04 10:40:17;;;;;;;15.88;3.28;;;;;;;-140.66;100.00;55571.53;5115726;28;20031;-74
2023/09/04 10:43:03;;;;;;;8.02;3.30;;;;;;;-140.66;100.00;55571.53;5116667;28;20023;-73
2023/09/04 10:46:08;;;;;;;8.77;3.00;;;;;;;-140.66;100.00;55571.53;5116890;28;20071;-73
2023/09/04 10:48:54;;;;;;;10.13;4.70;;;;;;;-140.66;100.00;55571.53;5116676;28;20024;-73
2023/09/04 10:51:47;;;;;;;4.30;2.88;;;;;;;-140.66;100.00;55571.53;5116345;28;20024;-74
2023/09/04 10:54:32;;;;;;;6.57;3.40;;;;;;;-140.66;100.00;55571.53;5115358;28;20427;-72
2023/09/04 10:57:21;;;;;;;3.55;3.00;;;;;;;-140.66;100.00;55571.53;5101502;28;20031;-72
2023/09/04 11:00:07;;;;;;;4.80;3.05;;;;;;;-140.66;100.00;55571.53;5116113;28;20027;-72
2023/09/04 11:02:53;;;;;;;4.90;3.30;;;;;;;-140.66;100.00;55571.53;5114682;28;20092;-71
2023/09/04 11:06:04;;;;;;;5.05;3.38;;;;;;;-140.66;100.00;55571.53;5116514;28;20023;-72
2023/09/04 11:08:51;;;;;;;8.60;3.40;;;;;;;-140.66;100.00;55571.53;5115998;28;20433;-72
2023/09/04 11:11:38;;;;;;;10.48;3.78;;;;;;;-140.66;100.00;55571.53;5115684;28;20445;-72
2023/09/04 11:14:32;;;;;;;4.07;3.70;;;;;;;-140.66;100.00;55571.53;5115591;28;20019;-73
2023/09/04 11:17:28;;;;;;;7.82;3.70;;;;;;;-140.66;100.00;55571.53;5101162;28;20035;-72
2023/09/04 11:20:15;;;;;;;5.07;3.60;;;;;;;-140.66;100.00;55571.53;5114854;28;20453;-72
2023/09/04 11:23:00;;;;;;;11.90;3.95;;;;;;;-140.66;100.00;55571.53;5116207;28;20457;-72
2023/09/04 11:25:46;;;;;;;6.07;3.67;;;;;;;-140.66;100.00;55571.53;5100874;28;20033;-73
2023/09/04 11:28:32;;;;;;;6.97;3.47;;;;;;;-140.66;100.00;55571.53;5115088;28;20034;-72
2023/09/04 11:31:18;;;;;;;7.20;3.78;;;;;;;-140.66;100.00;55571.53;5100935;28;20433;-73
2023/09/04 11:34:04;;;;;;;6.43;3.58;;;;;;;-140.66;100.00;55571.53;5114314;28;20034;-73
2023/09/04 11:36:51;;;;;;;4.35;3.67;;;;;;;-140.66;100.00;55571.53;5101990;28;20023;-72
2023/09/04 11:39:51;;;;;;;7.28;3.90;;;;;;;-140.66;100.00;55571.53;5114708;28;20032;-72
2023/09/04 11:42:37;;;;;;;8.05;3.83;;;;;;;-140.66;100.00;55571.53;5101408;28;20024;-71
2023/09/04 11:45:24;;;;;;;11.02;3.92;;;;;;;-140.66;100.00;55571.53;5113827;28;20108;-72
2023/09/04 11:48:13;;;;;;;6.22;3.80;;;;;;;-140.66;100.00;55571.53;5113931;28;20038;-73
2023/09/04 11:50:59;;;;;;;7.47;3.70;;;;;;;-140.66;100.00;55571.53;5099345;28;20166;-72
2023/09/04 11:53:45;;;;;;;4.00;3.47;;;;;;;-140.66;100.00;55571.53;5115591;28;20433;-72
2023/09/04 11:56:31;;;;;;;6.13;3.70;;;;;;;-140.66;100.00;55571.53;5115014;28;20141;-73
2023/09/04 11:59:17;;;;;;;6.72;3.45;;;;;;;-140.66;100.00;55571.53;5115360;28;20027;-72
2023/09/04 12:02:07;;;;;;;6.40;3.78;;;;;;;-140.66;100.00;55571.53;5105859;28;20480;-73
2023/09/04 12:04:56;;;;;;;6.55;3.85;;;;;;;-140.66;100.00;55571.53;5114700;28;20425;-72
2023/09/04 12:07:41;;;;;;;4.88;4.30;;;;;;;-140.66;100.00;55571.53;5114952;28;20088;-72
2023/09/04 12:10:27;;;;;;;5.30;4.10;;;;;;;-140.66;100.00;55571.53;5114562;28;20046;-72
2023/09/04 12:13:13;;;;;;;7.82;4.57;;;;;;;-140.66;100.00;55571.53;5100046;28;20030;-72
2023/09/04 12:16:07;;;;;;;9.60;4.68;;;;;;;-140.66;100.00;55571.53;5116370;28;20425;-73
2023/09/04 12:18:54;;;;;;;8.15;4.28;;;;;;;-140.66;100.00;55571.53;5099521;28;20084;-71
2023/09/04 12:21:39;;;;;;;4.97;4.00;;;;;;;-140.66;100.00;55571.53;5115013;28;20449;-71
2023/09/04 12:24:25;;;;;;;12.00;4.40;;;;;;;-140.66;100.00;55571.53;5115454;28;20038;-73
2023/09/04 12:27:11;;;;;;;6.53;4.30;;;;;;;-140.66;100.00;55571.53;5114500;28;20035;-72
2023/09/04 12:29:57;;;;;;;14.55;5.60;;;;;;;-140.66;100.00;55571.53;5105416;28;20035;-72
2023/09/04 12:32:43;;;;;;;15.23;4.30;;;;;;;-140.66;100.00;55571.53;5114435;28;20020;-71
2023/09/04 12:35:31;;;;;;;12.40;5.20;;;;;;;-140.66;100.00;55571.53;5113157;28;20028;-72
2023/09/04 12:38:17;;;;;;;7.72;4.55;;;;;;;-140.66;100.00;55571.53;5099696;28;20027;-71